PANC/ANC METAR and TAF weather

Enter ICAO airport designator
Station Type Date Time Source
PANC METAR 2021/05/15 23:53 UTC NOAA

PANC 152353Z 23008KT 10SM SCT045 SCT060 BKN120 12/01 A2974 RMK AO2 SLP072 PRESENT WX VCSH E 60000 T01170006 10117 20078 57007 $


Station Type Date Time Source
PANC Decoded METAR 2021/05/15 23:53 UTC NOAA

TED STEVENS ANCHORAGE INTERNATIONAL , AK, United States (PANC) 61-10N 150-02W 48M
May 15, 2021 - 07:53 PM EDT / 2021.05.15 2353 UTC
Wind: from the SW (230 degrees) at 9 MPH (8 KT):0
Visibility: 10 mile(s):0
Sky conditions: mostly cloudy
Temperature: 53.1 F (11.7 C)
Dew Point: 33.1 F (0.6 C)
Relative Humidity: 46%
Pressure (altimeter): 29.74 in. Hg (1007 hPa)
Pressure tendency: 0.02 inches (0.7 hPa) lower than three hours ago
ob: PANC 152353Z 23008KT 10SM SCT045 SCT060 BKN120 12/01 A2974 RMK AO2 SLP072 PRESENT WX VCSH E 60000 T01170006 10117 20078 57007
cycle: 0

Station Type Date Time Source
PANC TAF 2021/05/15 21:59 UTC NOAA

TAF
AMD PANC 152059Z 1521/1624 30006KT P6SM SCT045 OVC070
TEMPO 1521/1524 BKN045
FM160200 17010G18KT P6SM VCSH BKN050 BKN100
FM161000 17007KT P6SM SCT100 BKN150

Example: see airport list